Time;durP1;ratioP1;P1;durP2;ratioP2;P2;SDS_P1;SDS_P2;PMS_P1;PMS_P2;Temp;Humidity;BMP_temperature;BMP_pressure;BME280_temperature;BME280_humidity;BME280_pressure;Samples;Min_cycle;Max_cycle;Signal;HPM_P1;HPM_P2
2023/02/14 00:02:05;;;;;;;45.03;20.50;;;;;;;3.76;100.00;103131.41;5093018;28;20023;-78
2023/02/14 00:04:30;;;;;;;41.58;20.08;;;;;;;3.72;100.00;103136.38;5093028;28;20123;-78
2023/02/14 00:06:55;;;;;;;41.25;20.00;;;;;;;3.77;100.00;103139.38;5093325;28;20440;-79
2023/02/14 00:09:22;;;;;;;49.03;21.38;;;;;;;3.80;100.00;103138.69;5092910;28;20032;-78
2023/02/14 00:11:48;;;;;;;45.22;19.90;;;;;;;3.75;100.00;103134.81;5091035;28;20034;-78
2023/02/14 00:16:58;;;;;;;42.45;19.85;;;;;;;3.67;100.00;103127.25;5090127;28;20035;-77
2023/02/14 00:19:24;;;;;;;38.33;19.88;;;;;;;3.71;100.00;103129.34;5090542;28;20032;-78
2023/02/14 00:21:49;;;;;;;43.15;20.63;;;;;;;3.75;100.00;103124.41;5090223;28;20024;-77
2023/02/14 00:24:20;;;;;;;42.10;21.23;;;;;;;3.77;100.00;103125.41;5093709;28;20032;-79
2023/02/14 00:26:45;;;;;;;42.70;20.88;;;;;;;3.77;100.00;103122.81;5087280;28;20027;-78
2023/02/14 00:29:13;;;;;;;41.25;21.30;;;;;;;3.74;100.00;103113.06;5093297;28;20116;-77
2023/02/14 00:31:40;;;;;;;42.95;22.17;;;;;;;3.74;100.00;103117.38;5090449;28;20039;-78
2023/02/14 00:34:06;;;;;;;43.75;21.40;;;;;;;3.72;100.00;103115.53;5093467;28;20023;-78
2023/02/14 00:36:32;;;;;;;48.65;22.83;;;;;;;3.76;100.00;103110.56;5092046;28;20035;-79
2023/02/14 00:38:57;;;;;;;46.03;22.38;;;;;;;3.76;100.00;103111.50;5089627;28;20028;-78
2023/02/14 00:41:23;;;;;;;42.90;20.05;;;;;;;3.77;100.00;103109.78;5088077;28;20099;-80
2023/02/14 00:43:51;;;;;;;45.53;21.45;;;;;;;3.74;100.00;103105.25;5093125;28;20111;-78
2023/02/14 00:46:18;;;;;;;42.85;20.52;;;;;;;3.67;100.00;103105.53;5092496;28;20063;-78
2023/02/14 00:48:43;;;;;;;41.97;20.00;;;;;;;3.71;100.00;103102.41;5087877;28;20103;-78
2023/02/14 00:51:09;;;;;;;42.67;20.67;;;;;;;3.69;100.00;103096.13;5093176;28;20444;-78
2023/02/14 00:53:35;;;;;;;41.70;20.25;;;;;;;3.69;100.00;103093.53;5093221;28;20081;-78
2023/02/14 00:56:02;;;;;;;47.28;22.00;;;;;;;3.65;100.00;103102.81;5090016;28;20028;-77
2023/02/14 00:58:27;;;;;;;45.08;23.80;;;;;;;3.68;100.00;103097.84;5092216;28;20393;-77
2023/02/14 01:00:53;;;;;;;42.63;21.88;;;;;;;3.65;100.00;103097.59;5092069;28;20107;-78
2023/02/14 01:03:18;;;;;;;43.83;22.42;;;;;;;3.72;100.00;103099.91;5090483;28;20107;-77
2023/02/14 01:05:44;;;;;;;43.00;21.83;;;;;;;3.73;100.00;103098.25;5090797;28;20411;-78
2023/02/14 01:08:09;;;;;;;46.97;22.48;;;;;;;3.69;100.00;103093.53;5092090;28;20032;-77
2023/02/14 01:10:36;;;;;;;43.70;22.55;;;;;;;3.70;100.00;103088.47;5092245;28;20054;-78
2023/02/14 01:13:01;;;;;;;42.83;22.10;;;;;;;3.62;100.00;103091.22;5091917;28;20333;-78
2023/02/14 01:15:27;;;;;;;39.95;20.00;;;;;;;3.56;100.00;103091.66;5091133;28;20046;-79
2023/02/14 01:17:52;;;;;;;44.00;21.35;;;;;;;3.55;100.00;103087.22;5081425;28;20036;-75
2023/02/14 01:20:18;;;;;;;42.58;20.23;;;;;;;3.55;100.00;103084.63;5088142;28;20032;-79
2023/02/14 01:22:43;;;;;;;50.28;22.17;;;;;;;3.55;100.00;103084.63;5080629;28;20048;-78
2023/02/14 01:25:08;;;;;;;39.60;19.90;;;;;;;3.49;100.00;103084.13;5089815;28;20050;-77
2023/02/14 01:27:34;;;;;;;42.25;20.65;;;;;;;3.44;100.00;103086.34;5093746;28;20066;-79
2023/02/14 01:29:59;;;;;;;39.42;20.30;;;;;;;3.43;100.00;103083.63;5092044;28;20709;-78
2023/02/14 01:32:25;;;;;;;43.45;21.85;;;;;;;3.36;100.00;103084.81;5091387;28;20460;-77
2023/02/14 01:34:50;;;;;;;44.25;21.38;;;;;;;3.31;100.00;103083.50;5092936;28;20043;-74
2023/02/14 01:37:15;;;;;;;41.42;21.08;;;;;;;3.30;100.00;103089.53;5092336;28;20031;-78
2023/02/14 01:39:42;;;;;;;42.58;21.52;;;;;;;3.26;100.00;103084.84;5093554;28;20028;-78
2023/02/14 01:42:09;;;;;;;41.50;21.65;;;;;;;3.31;100.00;103083.50;5088409;28;20032;-77
2023/02/14 01:44:34;;;;;;;42.13;21.15;;;;;;;3.31;100.00;103084.44;5093548;28;20028;-78
2023/02/14 01:47:03;;;;;;;42.50;20.50;;;;;;;3.21;100.00;103079.25;5089309;28;20094;-78
2023/02/14 01:49:34;;;;;;;41.67;19.27;;;;;;;3.17;100.00;103083.31;5085220;28;20032;-78
2023/02/14 01:52:16;;;;;;;44.00;19.88;;;;;;;3.20;100.00;103074.81;5089653;28;20106;-78
2023/02/14 01:55:07;;;;;;;43.80;20.63;;;;;;;3.16;100.00;103075.34;5090571;28;20093;-79
2023/02/14 01:57:40;;;;;;;42.08;19.35;;;;;;;3.10;100.00;103077.47;5085313;28;20043;-77
2023/02/14 02:02:52;;;;;;;36.38;18.75;;;;;;;3.00;100.00;103076.69;5092076;28;20080;-78
2023/02/14 02:05:22;;;;;;;39.30;20.58;;;;;;;2.97;100.00;103078.13;5091402;28;20048;-78
2023/02/14 02:07:49;;;;;;;41.08;20.08;;;;;;;2.95;100.00;103080.59;5087701;28;20043;-79
2023/02/14 02:10:14;;;;;;;35.47;18.58;;;;;;;2.96;100.00;103077.22;5083824;28;20047;-78
2023/02/14 02:12:40;;;;;;;39.08;19.08;;;;;;;2.97;100.00;103081.66;5091743;28;20024;-79
2023/02/14 02:15:06;;;;;;;36.47;18.23;;;;;;;2.95;100.00;103077.09;5090208;28;20460;-79
2023/02/14 02:18:05;;;;;;;36.53;19.00;;;;;;;2.92;100.00;103077.75;5092094;28;20028;-78
2023/02/14 02:21:07;;;;;;;40.35;19.35;;;;;;;2.83;100.00;103075.25;5089481;28;20047;-78
2023/02/14 02:24:04;;;;;;;39.25;18.13;;;;;;;2.77;100.00;103076.44;5089855;28;20020;-77
2023/02/14 02:27:06;;;;;;;38.60;18.98;;;;;;;2.75;100.00;103078.91;5088603;28;20073;-79
2023/02/14 02:29:39;;;;;;;37.00;18.23;;;;;;;2.75;100.00;103078.91;5082840;28;20040;-78
2023/02/14 02:32:37;;;;;;;50.78;21.17;;;;;;;2.79;100.00;103074.88;5083914;28;20028;-78
2023/02/14 02:35:05;;;;;;;50.30;20.90;;;;;;;2.82;100.00;103072.53;5090223;28;20062;-78
2023/02/14 02:37:55;;;;;;;36.05;18.85;;;;;;;2.82;100.00;103067.34;5090954;28;20039;-77
2023/02/14 02:40:45;;;;;;;35.30;17.77;;;;;;;2.81;100.00;103074.25;5091515;28;20032;-78
2023/02/14 02:43:42;;;;;;;42.50;20.60;;;;;;;2.80;100.00;103067.22;5094425;28;20437;-78
2023/02/14 02:53:03;;;;;;;42.78;20.80;;;;;;;3.00;100.00;103053.28;5094584;28;20139;-77
2023/02/14 02:58:34;;;;;;;36.83;18.05;;;;;;;2.99;100.00;103047.97;5090840;28;20085;-78
2023/02/14 03:01:05;;;;;;;47.22;21.10;;;;;;;2.93;100.00;103058.75;5094251;28;20023;-79
2023/02/14 03:06:16;;;;;;;45.45;20.23;;;;;;;2.90;100.00;103053.28;5092057;28;20063;-78
2023/02/14 03:08:41;;;;;;;45.50;20.38;;;;;;;2.93;100.00;103048.38;5094684;28;20028;-78
2023/02/14 03:11:07;;;;;;;39.78;20.77;;;;;;;2.93;100.00;103048.38;5093376;28;20085;-78
2023/02/14 03:14:02;;;;;;;43.85;21.42;;;;;;;2.88;100.00;103049.66;5095443;28;20024;-78
2023/02/14 03:16:33;;;;;;;36.45;19.25;;;;;;;2.84;100.00;103055.38;5091714;28;20102;-77
2023/02/14 03:22:16;;;;;;;33.10;18.25;;;;;;;2.80;100.00;103050.72;5092553;28;20066;-79
2023/02/14 03:24:55;;;;;;;39.03;19.33;;;;;;;2.79;100.00;103059.28;5090119;28;20023;-78
2023/02/14 03:27:45;;;;;;;34.30;18.95;;;;;;;2.75;100.00;103054.63;5084552;28;20046;-80
2023/02/14 03:30:26;;;;;;;38.35;19.73;;;;;;;2.65;100.00;103056.44;5093792;28;20131;-77
2023/02/14 03:33:03;;;;;;;37.47;19.15;;;;;;;2.64;100.00;103054.59;5093439;28;20460;-80
2023/02/14 03:35:39;;;;;;;38.30;18.90;;;;;;;2.63;100.00;103060.59;5094069;28;20024;-78
2023/02/14 03:38:20;;;;;;;40.28;17.80;;;;;;;2.62;100.00;103056.19;5092034;28;20103;-79
2023/02/14 03:41:21;;;;;;;35.22;19.02;;;;;;;2.55;100.00;103056.44;5093342;28;20054;-78
2023/02/14 03:43:54;;;;;;;41.10;19.42;;;;;;;2.55;100.00;103052.91;5092329;28;20311;-78
2023/02/14 03:46:31;;;;;;;34.33;18.25;;;;;;;2.50;100.00;103049.94;5093411;28;20020;-79
2023/02/14 03:49:01;;;;;;;39.85;19.90;;;;;;;2.50;100.00;103047.34;5094037;28;20394;-78
2023/02/14 03:51:33;;;;;;;36.30;18.70;;;;;;;2.46;100.00;103045.28;5091283;28;20081;-78
2023/02/14 03:53:59;;;;;;;39.30;19.85;;;;;;;2.47;100.00;103045.41;5089762;28;20085;-79
2023/02/14 03:56:44;;;;;;;37.95;20.27;;;;;;;2.54;100.00;103049.44;5087830;28;20111;-79
2023/02/14 03:59:16;;;;;;;39.67;20.40;;;;;;;2.54;100.00;103052.03;5089527;28;20108;-79
2023/02/14 04:01:54;;;;;;;38.20;19.63;;;;;;;2.57;100.00;103047.06;5092917;28;20406;-78
2023/02/14 04:04:22;;;;;;;41.67;19.90;;;;;;;2.60;100.00;103047.31;5093180;28;20048;-78
2023/02/14 04:06:47;;;;;;;43.70;19.95;;;;;;;2.64;100.00;103049.41;5089133;28;20102;-78
2023/02/14 04:09:13;;;;;;;46.85;21.63;;;;;;;2.68;100.00;103042.78;5089494;28;20126;-78
2023/02/14 04:11:39;;;;;;;34.40;19.23;;;;;;;2.68;100.00;103046.28;5091858;28;20106;-78
2023/02/14 04:14:05;;;;;;;37.13;19.15;;;;;;;2.65;100.00;103043.44;5094333;28;20345;-78
2023/02/14 04:19:21;;;;;;;38.58;19.70;;;;;;;2.61;100.00;103041.34;5091193;28;20032;-77
2023/02/14 04:19:22;;;;;;;38.22;20.30;;;;;;;2.63;100.00;103037.22;5092924;28;20032;-78
2023/02/14 04:21:48;;;;;;;41.35;20.42;;;;;;;2.60;100.00;103039.53;5091574;28;20024;-78
2023/02/14 04:24:13;;;;;;;39.30;20.33;;;;;;;2.57;100.00;103039.28;5094177;28;20590;-78
2023/02/14 04:26:38;;;;;;;34.88;19.63;;;;;;;2.61;100.00;103038.75;5090781;28;20024;-78
2023/02/14 04:29:04;;;;;;;45.33;21.15;;;;;;;2.60;100.00;103033.44;5090293;28;20081;-77
2023/02/14 04:31:29;;;;;;;40.08;20.77;;;;;;;2.56;100.00;103037.44;5090386;28;20127;-78
2023/02/14 04:33:54;;;;;;;39.13;20.08;;;;;;;2.60;100.00;103042.13;5092990;28;20047;-79
2023/02/14 04:36:20;;;;;;;40.72;21.00;;;;;;;2.62;100.00;103034.47;5090294;28;20047;-77
2023/02/14 04:38:45;;;;;;;44.58;21.08;;;;;;;2.65;100.00;103039.94;5089481;28;20051;-79
2023/02/14 04:41:10;;;;;;;44.05;19.42;;;;;;;2.68;100.00;103041.09;5082865;28;20023;-78
2023/02/14 04:43:36;;;;;;;41.65;20.80;;;;;;;2.66;100.00;103037.47;5094308;28;20020;-78
2023/02/14 04:46:01;;;;;;;40.10;20.65;;;;;;;2.68;100.00;103035.00;5094104;28;20035;-78
2023/02/14 04:48:26;;;;;;;47.22;22.25;;;;;;;2.68;100.00;103035.88;5088677;28;20085;-78
2023/02/14 04:50:53;;;;;;;48.40;23.17;;;;;;;2.73;100.00;103048.34;5084037;28;20023;-78
2023/02/14 04:53:20;;;;;;;45.20;22.48;;;;;;;2.79;100.00;103044.59;5092407;28;20401;-79
2023/02/14 04:55:47;;;;;;;44.95;22.42;;;;;;;2.85;100.00;103044.22;5093260;28;20364;-78
2023/02/14 04:58:12;;;;;;;46.63;23.15;;;;;;;2.93;100.00;103040.56;5092617;28;20436;-79
2023/02/14 05:00:38;;;;;;;47.78;23.20;;;;;;;2.94;100.00;103044.94;5090768;28;20059;-78
2023/02/14 05:03:05;;;;;;;48.25;20.95;;;;;;;2.93;100.00;103037.03;5073186;28;20126;-79
2023/02/14 05:05:30;;;;;;;43.03;21.52;;;;;;;2.92;100.00;103037.84;5081424;28;20041;-78
2023/02/14 05:07:55;;;;;;;51.30;23.17;;;;;;;2.93;100.00;103050.03;5092179;28;20035;-79
2023/02/14 05:10:20;;;;;;;44.80;21.67;;;;;;;2.91;100.00;103044.72;5093033;28;20035;-78
2023/02/14 05:12:46;;;;;;;44.70;21.38;;;;;;;2.92;100.00;103036.13;5092953;28;20086;-78
2023/02/14 05:15:11;;;;;;;44.03;21.55;;;;;;;2.93;100.00;103037.97;5081645;28;20049;-79
2023/02/14 05:17:37;;;;;;;41.58;19.20;;;;;;;2.93;100.00;103037.03;5092769;28;20390;-78
2023/02/14 05:20:04;;;;;;;37.03;20.70;;;;;;;2.91;100.00;103039.50;5090310;28;20020;-79
2023/02/14 05:22:30;;;;;;;58.00;22.10;;;;;;;2.86;100.00;103033.00;5073376;28;20122;-78
2023/02/14 05:24:55;;;;;;;43.95;20.35;;;;;;;2.85;100.00;103036.41;5093068;28;20420;-78
2023/02/14 05:27:20;;;;;;;42.42;21.00;;;;;;;2.82;100.00;103033.53;5091839;28;20090;-78
2023/02/14 05:29:46;;;;;;;48.55;21.00;;;;;;;2.79;100.00;103036.78;5091066;28;20024;-79
2023/02/14 05:32:11;;;;;;;39.47;20.88;;;;;;;2.79;100.00;103044.59;5082548;28;20415;-78
2023/02/14 05:34:36;;;;;;;37.60;19.65;;;;;;;2.76;100.00;103038.25;5075564;28;20024;-78
2023/02/14 05:37:03;;;;;;;39.63;20.00;;;;;;;2.74;100.00;103042.38;5090300;28;20051;-77
2023/02/14 05:39:28;;;;;;;43.25;19.88;;;;;;;2.69;100.00;103037.72;5091892;28;20031;-78
2023/02/14 05:41:55;;;;;;;41.17;19.63;;;;;;;2.67;100.00;103033.16;5088083;28;20043;-78
2023/02/14 05:44:20;;;;;;;35.45;18.60;;;;;;;2.67;100.00;103030.56;5090841;28;20521;-78
2023/02/14 05:46:46;;;;;;;36.47;19.85;;;;;;;2.63;100.00;103029.41;5089696;28;20024;-77
2023/02/14 05:49:11;;;;;;;37.92;19.67;;;;;;;2.61;100.00;103028.34;5089257;28;20081;-78
2023/02/14 05:51:36;;;;;;;36.55;18.85;;;;;;;2.55;100.00;103025.25;5090536;28;20070;-78
2023/02/14 05:54:02;;;;;;;40.10;20.00;;;;;;;2.53;100.00;103024.22;5092179;28;20408;-77
2023/02/14 05:56:27;;;;;;;37.13;18.92;;;;;;;2.50;100.00;103024.84;5080100;28;20067;-79
2023/02/14 05:58:52;;;;;;;36.45;18.98;;;;;;;2.46;100.00;103021.88;5087217;28;20065;-79
2023/02/14 06:01:18;;;;;;;32.83;17.80;;;;;;;2.40;100.00;103026.53;5086703;28;20419;-78
2023/02/14 06:03:43;;;;;;;35.72;19.30;;;;;;;2.26;100.00;103020.19;5086153;28;20471;-77
2023/02/14 06:06:08;;;;;;;32.28;18.40;;;;;;;2.18;100.00;103020.44;5088874;28;20052;-78
2023/02/14 06:08:34;;;;;;;35.63;17.95;;;;;;;2.18;100.00;103016.91;5088478;28;20206;-78
2023/02/14 06:10:59;;;;;;;35.67;19.38;;;;;;;2.17;100.00;103010.81;5085799;28;20032;-78
2023/02/14 06:13:25;;;;;;;36.20;19.25;;;;;;;2.17;100.00;103012.50;5088707;28;20036;-78
2023/02/14 06:15:50;;;;;;;36.67;19.67;;;;;;;2.16;100.00;103015.88;5078728;28;20024;-76
2023/02/14 06:18:15;;;;;;;32.28;17.85;;;;;;;2.07;100.00;103026.38;5091559;28;20041;-78
2023/02/14 06:20:40;;;;;;;32.03;18.00;;;;;;;1.99;100.00;103028.34;5089232;28;20760;-74
2023/02/14 06:23:06;;;;;;;30.42;18.00;;;;;;;2.01;100.00;103026.75;5099965;28;20031;-75
2023/02/14 06:25:31;;;;;;;32.40;19.92;;;;;;;1.95;100.00;103027.91;5103112;28;20050;-74
2023/02/14 06:27:58;;;;;;;29.35;17.45;;;;;;;1.99;100.00;103019.63;5091974;28;20024;-74
2023/02/14 06:30:24;;;;;;;31.05;17.30;;;;;;;1.94;100.00;103021.81;5087452;28;20024;-73
2023/02/14 06:32:50;;;;;;;37.47;18.70;;;;;;;1.92;100.00;103025.97;5091382;28;20058;-74
2023/02/14 06:35:15;;;;;;;33.53;18.15;;;;;;;1.90;100.00;103032.72;5084423;28;20043;-74
2023/02/14 06:37:41;;;;;;;36.17;19.80;;;;;;;1.85;100.00;103031.41;5085989;28;20030;-75
2023/02/14 06:40:08;;;;;;;38.75;18.73;;;;;;;1.83;100.00;103026.09;5086505;28;20072;-75
2023/02/14 06:42:33;;;;;;;39.42;19.77;;;;;;;1.84;100.00;103029.56;5088658;28;20036;-76
2023/02/14 06:45:01;;;;;;;37.13;19.50;;;;;;;1.83;100.00;103025.16;5092796;28;20093;-79
2023/02/14 06:47:26;;;;;;;31.85;18.63;;;;;;;1.80;100.00;103030.09;5085472;28;20035;-78
2023/02/14 06:49:52;;;;;;;39.38;20.10;;;;;;;1.78;100.00;103018.69;5085809;28;20361;-79
2023/02/14 06:52:17;;;;;;;38.67;18.88;;;;;;;1.79;100.00;103023.06;5086874;28;20093;-80
2023/02/14 06:54:42;;;;;;;33.30;19.00;;;;;;;1.77;100.00;103024.63;5087441;28;20498;-81
2023/02/14 06:57:08;;;;;;;39.90;20.75;;;;;;;1.76;100.00;103025.41;5092420;28;20429;-80
2023/02/14 06:59:33;;;;;;;35.20;19.52;;;;;;;1.71;100.00;103019.81;5091114;28;20107;-81
2023/02/14 07:01:58;;;;;;;37.65;20.40;;;;;;;1.76;100.00;103023.69;5088735;28;20467;-78
2023/02/14 07:04:24;;;;;;;37.42;20.63;;;;;;;1.76;100.00;103028.00;5084610;28;20076;-77
2023/02/14 07:06:49;;;;;;;43.33;20.42;;;;;;;1.72;100.00;103025.91;5093726;28;20048;-77
2023/02/14 07:09:16;;;;;;;38.92;18.70;;;;;;;1.72;100.00;103025.91;5075849;28;20040;-76
2023/02/14 07:11:42;;;;;;;31.60;18.45;;;;;;;1.76;100.00;103033.19;5090604;28;20059;-78
2023/02/14 07:14:07;;;;;;;36.30;19.35;;;;;;;1.79;100.00;103034.38;5086814;28;20055;-78
2023/02/14 07:16:33;;;;;;;37.50;20.17;;;;;;;1.79;100.00;103028.25;5104693;28;20031;-78
2023/02/14 07:18:58;;;;;;;35.90;19.02;;;;;;;1.75;100.00;103026.16;5113207;28;20026;-79
2023/02/14 07:21:24;;;;;;;36.92;20.38;;;;;;;1.71;100.00;103035.41;5100517;28;20032;-78
2023/02/14 07:23:49;;;;;;;49.50;20.30;;;;;;;1.68;100.00;103038.63;5102972;28;20106;-79
2023/02/14 07:26:16;;;;;;;36.70;18.90;;;;;;;1.64;100.00;103043.38;5092833;28;20056;-80
2023/02/14 07:28:44;;;;;;;35.13;18.90;;;;;;;1.64;100.00;103044.31;5092079;28;20024;-79
2023/02/14 07:31:09;;;;;;;38.53;19.63;;;;;;;1.69;100.00;103042.13;5094010;28;20024;-79
2023/02/14 07:33:34;;;;;;;34.38;18.45;;;;;;;1.75;100.00;103042.66;5094867;28;20028;-80
2023/02/14 07:36:04;;;;;;;33.63;19.20;;;;;;;1.76;100.00;103041.88;5085839;28;20032;-79
2023/02/14 07:38:29;;;;;;;34.42;18.40;;;;;;;1.80;100.00;103043.97;5089607;28;20456;-74
2023/02/14 07:40:54;;;;;;;35.47;19.73;;;;;;;1.84;100.00;103037.38;5095234;28;20034;-81
2023/02/14 07:43:20;;;;;;;35.17;19.83;;;;;;;1.91;100.00;103047.50;5090314;28;20032;-78
2023/02/14 07:45:45;;;;;;;35.17;19.63;;;;;;;1.92;100.00;103043.25;5093290;28;20055;-79
2023/02/14 07:48:10;;;;;;;33.17;19.17;;;;;;;1.94;100.00;103044.25;5103516;28;20020;-78
2023/02/14 07:50:36;;;;;;;34.72;18.55;;;;;;;1.98;100.00;103044.69;5103686;28;20023;-79
2023/02/14 07:53:01;;;;;;;38.75;20.50;;;;;;;2.02;100.00;103041.56;5098719;28;20027;-77
2023/02/14 07:55:26;;;;;;;35.83;18.23;;;;;;;1.99;100.00;103038.72;5101229;28;20028;-79
2023/02/14 07:57:52;;;;;;;35.78;19.45;;;;;;;2.04;100.00;103040.81;5084645;28;20488;-79
2023/02/14 08:00:18;;;;;;;31.15;19.13;;;;;;;2.09;100.00;103039.50;5102246;28;20020;-79
2023/02/14 08:02:43;;;;;;;35.00;20.55;;;;;;;2.16;100.00;103039.25;5090075;28;20020;-80
2023/02/14 08:05:09;;;;;;;43.25;21.80;;;;;;;2.24;100.00;103027.84;5090672;28;20052;-78
2023/02/14 08:07:35;;;;;;;44.10;21.00;;;;;;;2.29;100.00;103031.75;5096663;28;20031;-79
2023/02/14 08:10:00;;;;;;;35.78;20.20;;;;;;;2.38;100.00;103038.50;5077117;28;20085;-79
2023/02/14 08:17:55;;;;;;;41.95;23.15;;;;;;;2.60;100.00;103039.53;5075564;28;20047;-74
2023/02/14 08:20:20;;;;;;;42.55;21.52;;;;;;;2.64;100.00;103033.81;5091697;28;20035;-74
2023/02/14 08:22:45;;;;;;;38.90;22.33;;;;;;;2.69;100.00;103045.50;5092951;28;20027;-73
2023/02/14 08:25:11;;;;;;;43.28;23.60;;;;;;;2.79;100.00;103043.69;5093105;28;20387;-73
2023/02/14 08:27:36;;;;;;;45.33;23.63;;;;;;;2.83;100.00;103044.06;5089730;28;20472;-73
2023/02/14 08:30:01;;;;;;;47.30;24.17;;;;;;;2.89;100.00;103046.28;5092431;28;20024;-72
2023/02/14 08:32:27;;;;;;;46.92;23.13;;;;;;;2.94;100.00;103050.16;5087736;28;20036;-73
2023/02/14 08:34:52;;;;;;;44.45;24.13;;;;;;;3.01;100.00;103052.50;5092111;28;20048;-72
2023/02/14 08:37:17;;;;;;;47.30;24.25;;;;;;;3.10;100.00;103051.44;5075424;28;20028;-74
2023/02/14 08:39:43;;;;;;;52.55;25.90;;;;;;;3.16;100.00;103044.13;5090531;28;20077;-73
2023/02/14 08:42:08;;;;;;;52.38;26.02;;;;;;;3.19;100.00;103047.91;5090824;28;20028;-75
2023/02/14 08:44:33;;;;;;;50.33;24.40;;;;;;;3.26;100.00;103044.13;5083140;28;20013;-73
2023/02/14 08:46:59;;;;;;;42.85;25.20;;;;;;;3.32;100.00;103044.63;5091274;28;20050;-73
2023/02/14 08:49:24;;;;;;;50.92;26.25;;;;;;;3.40;100.00;103041.75;5092779;28;20084;-73
2023/02/14 08:51:49;;;;;;;47.97;24.67;;;;;;;3.47;100.00;103033.63;5093653;28;20344;-74
2023/02/14 08:54:15;;;;;;;48.80;24.10;;;;;;;3.54;100.00;103033.34;5092118;28;20084;-74
2023/02/14 08:56:41;;;;;;;55.35;26.17;;;;;;;3.63;100.00;103035.78;5086551;28;20031;-73
2023/02/14 08:59:06;;;;;;;51.53;26.80;;;;;;;3.70;100.00;103035.47;5078846;28;20096;-74
2023/02/14 09:01:32;;;;;;;61.53;27.98;;;;;;;3.80;100.00;103034.50;5073062;28;20063;-73
2023/02/14 09:03:57;;;;;;;47.33;25.20;;;;;;;3.87;100.00;103032.53;5082110;28;20035;-75
2023/02/14 09:06:23;;;;;;;52.33;25.17;;;;;;;3.94;100.00;103041.72;5089253;28;20562;-75
2023/02/14 09:08:48;;;;;;;51.17;26.23;;;;;;;4.04;100.00;103036.47;5093078;28;20030;-76
2023/02/14 09:11:18;;;;;;;53.05;26.95;;;;;;;4.19;100.00;103035.84;5089749;28;20101;-75
2023/02/14 09:13:45;;;;;;;53.17;26.70;;;;;;;4.35;100.00;103044.09;5086215;28;20038;-74
2023/02/14 09:16:12;;;;;;;50.65;26.75;;;;;;;4.51;100.00;103034.81;5084614;28;20107;-74
2023/02/14 09:18:38;;;;;;;59.63;28.45;;;;;;;4.67;100.00;103029.09;5089665;28;20032;-76
2023/02/14 09:21:12;;;;;;;50.67;29.13;;;;;;;4.93;100.00;103025.81;5082998;28;20020;-74
2023/02/14 09:23:38;;;;;;;52.90;28.13;;;;;;;5.22;100.00;103024.47;5089229;28;20036;-76
2023/02/14 09:26:06;;;;;;;55.55;29.77;;;;;;;5.64;100.00;103025.78;5090541;28;20042;-75
2023/02/14 09:28:33;;;;;;;54.92;29.63;;;;;;;6.12;100.00;103025.66;5084317;28;20468;-75
2023/02/14 09:31:07;;;;;;;53.28;27.45;;;;;;;6.51;100.00;103026.59;5077676;28;20371;-76
2023/02/14 09:33:33;;;;;;;46.58;25.95;;;;;;;6.81;100.00;103033.03;5091955;28;20024;-76
2023/02/14 09:36:10;;;;;;;46.75;25.08;;;;;;;7.15;100.00;103026.50;5091284;28;20434;-75
2023/02/14 09:38:35;;;;;;;51.40;24.77;;;;;;;7.44;100.00;103033.66;5087320;28;20448;-75
2023/02/14 09:41:05;;;;;;;39.35;23.48;;;;;;;7.66;100.00;103030.69;5075393;28;20103;-75
2023/02/14 09:44:06;;;;;;;36.33;22.70;;;;;;;7.96;100.00;103036.06;5076951;28;20417;-76
2023/02/14 09:46:41;;;;;;;45.97;24.33;;;;;;;8.16;100.00;103028.53;5085856;28;20036;-75
2023/02/14 09:49:11;;;;;;;40.30;24.30;;;;;;;8.36;100.00;103028.03;5091899;28;20020;-75
2023/02/14 09:51:41;;;;;;;40.08;22.67;;;;;;;8.49;100.00;103034.06;5088923;28;20035;-73
2023/02/14 09:54:21;;;;;;;49.30;24.38;;;;;;;8.86;100.00;103031.03;5085200;28;20024;-75
2023/02/14 09:57:06;;;;;;;40.42;24.85;;;;;;;9.16;100.00;103036.25;5086170;28;20109;-75
2023/02/14 09:59:40;;;;;;;44.85;25.58;;;;;;;9.30;100.00;103027.41;5094709;28;20181;-74
2023/02/14 10:02:33;;;;;;;50.85;25.63;;;;;;;9.50;100.00;103031.19;5088875;28;20449;-76
2023/02/14 10:05:16;;;;;;;46.47;26.38;;;;;;;9.48;100.00;103024.03;5086755;28;20045;-76
2023/02/14 10:07:54;;;;;;;40.35;24.70;;;;;;;9.68;100.00;103033.94;5077865;28;20032;-77
2023/02/14 10:10:32;;;;;;;42.08;25.83;;;;;;;9.61;100.00;103030.06;5099659;28;20433;-73
2023/02/14 10:13:15;;;;;;;51.85;26.63;;;;;;;9.35;100.00;103031.22;5093156;28;20031;-75
2023/02/14 10:15:45;;;;;;;43.22;25.63;;;;;;;9.47;100.00;103033.66;5100604;28;20024;-76
2023/02/14 10:18:28;;;;;;;46.70;27.17;;;;;;;9.66;100.00;103032.94;5116751;28;20055;-76
2023/02/14 10:21:00;;;;;;;51.10;27.55;;;;;;;9.84;100.00;103024.28;5110505;28;20027;-76
2023/02/14 10:23:36;;;;;;;51.92;27.80;;;;;;;10.09;100.00;103027.41;5096228;28;20039;-75
2023/02/14 10:26:11;;;;;;;48.10;27.45;;;;;;;10.34;100.00;103023.44;5096353;28;20025;-76
2023/02/14 10:28:46;;;;;;;50.28;28.58;;;;;;;10.53;100.00;103027.09;5086654;28;20353;-76
2023/02/14 10:31:20;;;;;;;47.38;27.27;;;;;;;10.84;100.00;103029.56;5098592;28;20031;-76
2023/02/14 10:33:54;;;;;;;45.08;26.17;;;;;;;11.18;100.00;103025.06;5104421;28;20484;-76
2023/02/14 10:36:35;;;;;;;48.03;28.10;;;;;;;11.18;100.00;103022.41;5101053;28;20114;-76
2023/02/14 10:39:07;;;;;;;42.60;26.58;;;;;;;11.31;100.00;103019.56;5104976;28;20028;-76
2023/02/14 10:41:52;;;;;;;45.22;26.60;;;;;;;11.56;100.00;103026.03;5099235;28;20509;-77
2023/02/14 10:44:40;;;;;;;44.28;26.45;;;;;;;11.94;96.75;103025.22;5088982;28;20028;-76
2023/02/14 10:47:22;;;;;;;42.67;24.88;;;;;;;12.35;94.83;103021.75;5090622;28;20663;-74
2023/02/14 10:50:16;;;;;;;42.45;26.38;;;;;;;12.50;91.33;103016.25;5078332;28;20089;-77
2023/02/14 10:53:03;;;;;;;41.92;26.67;;;;;;;12.68;85.98;103017.00;5090897;28;20085;-77
2023/02/14 10:56:01;;;;;;;50.22;26.45;;;;;;;13.03;84.85;103009.66;5096073;28;20107;-77
2023/02/14 10:58:30;;;;;;;38.58;24.17;;;;;;;13.09;79.31;102999.38;5098377;28;20028;-77
2023/02/14 11:01:09;;;;;;;38.63;24.35;;;;;;;13.57;77.89;103003.94;5094070;28;20019;-76
2023/02/14 11:03:37;;;;;;;43.05;25.45;;;;;;;13.95;75.21;103006.25;5086767;28;20042;-76
2023/02/14 11:06:03;;;;;;;42.03;25.58;;;;;;;14.20;74.53;102996.53;5094285;28;20044;-76
2023/02/14 11:08:33;;;;;;;41.13;24.70;;;;;;;14.31;69.65;103003.13;5098201;28;20032;-76
2023/02/14 11:11:29;;;;;;;40.05;24.90;;;;;;;14.36;67.74;103005.94;5089045;28;20383;-77
2023/02/14 11:13:54;;;;;;;39.83;24.30;;;;;;;14.75;67.92;103003.81;5084189;28;20480;-76
2023/02/14 11:16:35;;;;;;;38.72;24.35;;;;;;;14.79;65.58;103005.72;5090935;28;20027;-77
2023/02/14 11:19:06;;;;;;;41.28;24.38;;;;;;;14.61;63.56;102994.44;5094961;28;20031;-76
2023/02/14 11:21:37;;;;;;;34.30;22.38;;;;;;;14.81;65.09;102993.44;5094035;28;20415;-76
2023/02/14 11:24:33;;;;;;;37.80;23.90;;;;;;;15.21;62.53;102990.28;5091698;28;20012;-76
2023/02/14 11:27:11;;;;;;;37.40;24.38;;;;;;;15.59;62.07;102995.88;5093186;28;20051;-77
2023/02/14 11:29:39;;;;;;;38.45;23.60;;;;;;;15.79;60.06;102984.09;5094348;28;20028;-76
2023/02/14 11:32:08;;;;;;;38.70;24.85;;;;;;;15.75;57.17;102976.91;5089832;28;20032;-75
2023/02/14 11:34:39;;;;;;;41.70;24.73;;;;;;;16.21;57.39;102981.75;5094432;28;20036;-76
2023/02/14 11:37:36;;;;;;;36.13;25.10;;;;;;;16.80;55.24;102979.75;5090305;28;20028;-77
2023/02/14 11:40:04;;;;;;;37.58;24.98;;;;;;;16.73;54.47;102974.28;5094251;28;20513;-76
2023/02/14 11:42:37;;;;;;;38.45;26.40;;;;;;;16.88;53.14;102966.66;5093001;28;20024;-77
2023/02/14 11:45:04;;;;;;;36.88;24.77;;;;;;;17.35;52.25;102963.38;5082747;28;20406;-74
2023/02/14 11:47:33;;;;;;;34.53;23.88;;;;;;;17.29;51.77;102957.91;5092355;28;20024;-77
2023/02/14 11:50:04;;;;;;;35.58;22.88;;;;;;;17.77;50.94;102964.25;5094608;28;20471;-79